Nashville (BNA/KBNA)

Information

Location
Nashville, TN
Local Time
12:04 / 12:04 pm
GMT Time
18:04 / 6:04 pm
No FAA reported delays
METAR KBNA 191753Z 34010G16KT 10SM FEW040 08/M06 A3016 RMK AO2 SLP213 T00781061 10078 20044 50004
TAF KBNA 191738Z 1918/2018 32011G16KT P6SM FEW040 FM192300 33003KT P6SM SKC